createdAt,value
2023-03-03T00:00:59.477Z,7.73
2023-03-03T00:03:26.543Z,6.83
2023-03-03T00:05:53.760Z,7.00
2023-03-03T00:08:22.351Z,8.67
2023-03-03T00:10:49.376Z,7.70
2023-03-03T00:13:18.023Z,7.43
2023-03-03T00:15:45.334Z,9.23
2023-03-03T00:18:22.880Z,10.20
2023-03-03T00:20:53.081Z,6.40
2023-03-03T00:23:35.832Z,10.43
2023-03-03T00:26:08.555Z,10.53
2023-03-03T00:28:44.847Z,9.30
2023-03-03T00:31:17.050Z,7.60
2023-03-03T00:33:48.345Z,10.70
2023-03-03T00:36:29.081Z,11.53
2023-03-03T00:39:11.075Z,7.70
2023-03-03T00:41:39.111Z,7.50
2023-03-03T00:44:40.392Z,10.63
2023-03-03T00:47:24.197Z,7.97
2023-03-03T00:49:51.007Z,9.47
2023-03-03T00:52:19.035Z,10.40
2023-03-03T00:54:47.088Z,11.37
2023-03-03T00:57:14.000Z,11.27
2023-03-03T00:59:40.940Z,9.90
2023-03-03T01:02:07.742Z,8.70
2023-03-03T01:04:34.414Z,8.63
2023-03-03T01:07:01.082Z,8.07
2023-03-03T01:09:27.771Z,8.73
2023-03-03T01:11:55.900Z,9.50
2023-03-03T01:14:22.636Z,6.87
2023-03-03T01:16:49.370Z,8.27
2023-03-03T01:19:16.822Z,8.90
2023-03-03T01:21:43.468Z,8.30
2023-03-03T01:24:10.159Z,6.50
2023-03-03T01:26:36.828Z,8.10
2023-03-03T01:29:04.845Z,8.87
2023-03-03T01:31:31.625Z,7.37
2023-03-03T01:33:58.323Z,7.43
2023-03-03T01:36:25.611Z,7.60
2023-03-03T01:38:52.337Z,7.77
2023-03-03T01:41:19.293Z,7.93
2023-03-03T01:43:47.615Z,7.97
2023-03-03T01:46:40.675Z,7.77
2023-03-03T01:49:13.950Z,8.30
2023-03-03T01:51:47.736Z,11.33
2023-03-03T01:54:18.067Z,7.03
2023-03-03T01:56:44.997Z,6.97
2023-03-03T01:59:16.290Z,8.97
2023-03-03T02:01:45.817Z,8.50
2023-03-03T02:04:12.944Z,9.67
2023-03-03T02:06:50.530Z,9.77
2023-03-03T02:09:24.889Z,9.73
2023-03-03T02:11:54.892Z,10.60
2023-03-03T02:14:21.586Z,9.20
2023-03-03T02:16:49.626Z,8.70
2023-03-03T02:19:27.432Z,10.50
2023-03-03T02:21:54.109Z,9.73
2023-03-03T02:24:26.380Z,10.07
2023-03-03T02:30:20.516Z,10.30
2023-03-03T02:32:47.193Z,9.13
2023-03-03T02:35:30.420Z,10.80
2023-03-03T02:38:04.029Z,13.00
2023-03-03T02:40:36.166Z,12.43
2023-03-03T02:43:05.210Z,11.03
2023-03-03T02:45:33.284Z,12.40
2023-03-03T02:47:59.960Z,12.13
2023-03-03T02:50:26.639Z,10.73
2023-03-03T02:52:53.342Z,11.77
2023-03-03T02:55:20.046Z,13.07
2023-03-03T02:57:46.730Z,12.87
2023-03-03T03:00:13.965Z,12.77
2023-03-03T03:02:41.924Z,14.43
2023-03-03T03:05:08.989Z,11.37
2023-03-03T03:07:35.678Z,14.40
2023-03-03T03:10:02.433Z,11.63
2023-03-03T03:12:29.080Z,12.50
2023-03-03T03:14:55.829Z,12.60
2023-03-03T03:17:22.512Z,12.57
2023-03-03T03:19:50.464Z,11.63
2023-03-03T03:22:17.116Z,12.47
2023-03-03T03:24:43.750Z,12.33
2023-03-03T03:27:10.398Z,12.10
2023-03-03T03:29:37.044Z,13.07
2023-03-03T03:32:03.830Z,12.53
2023-03-03T03:34:30.500Z,11.83
2023-03-03T03:36:58.493Z,10.57
2023-03-03T03:39:25.118Z,9.63
2023-03-03T03:41:51.841Z,12.80
2023-03-03T03:44:18.485Z,10.70
2023-03-03T03:46:45.128Z,9.63
2023-03-03T03:49:11.788Z,10.70
2023-03-03T03:51:38.426Z,11.97
2023-03-03T03:54:06.540Z,12.40
2023-03-03T03:56:33.260Z,12.00
2023-03-03T03:58:59.895Z,12.53
2023-03-03T04:01:26.941Z,10.80
2023-03-03T04:03:53.587Z,11.37
2023-03-03T04:06:20.238Z,11.23
2023-03-03T04:08:46.934Z,12.80
2023-03-03T04:11:14.919Z,14.60
2023-03-03T04:13:41.661Z,10.80
2023-03-03T04:16:08.567Z,11.53
2023-03-03T04:18:35.274Z,12.10
2023-03-03T04:21:01.895Z,11.30
2023-03-03T04:23:28.694Z,12.20
2023-03-03T04:25:55.363Z,12.23
2023-03-03T04:28:23.351Z,11.80
2023-03-03T04:30:50.016Z,13.17
2023-03-03T04:33:16.650Z,12.60
2023-03-03T04:35:43.312Z,16.03
2023-03-03T04:38:09.968Z,11.80
2023-03-03T04:40:36.691Z,12.77
2023-03-03T04:43:03.615Z,13.10
2023-03-03T04:45:31.663Z,11.23
2023-03-03T04:47:58.362Z,12.60
2023-03-03T04:50:25.098Z,11.40
2023-03-03T04:52:51.798Z,10.13
2023-03-03T04:55:18.720Z,13.93
2023-03-03T04:57:45.427Z,9.50
2023-03-03T05:00:14.167Z,10.80
2023-03-03T05:02:42.585Z,12.90
2023-03-03T05:05:09.881Z,9.87
2023-03-03T05:07:36.537Z,11.03
2023-03-03T05:10:03.390Z,11.40
2023-03-03T05:12:30.063Z,10.87
2023-03-03T05:14:56.692Z,11.97
2023-03-03T05:17:23.370Z,10.20
2023-03-03T05:19:51.362Z,12.27
2023-03-03T05:22:18.107Z,11.83
2023-03-03T05:24:44.824Z,12.93
2023-03-03T05:27:11.492Z,11.77
2023-03-03T05:29:38.139Z,12.10
2023-03-03T05:32:05.086Z,11.90
2023-03-03T05:34:31.753Z,10.53
2023-03-03T05:36:59.745Z,12.47
2023-03-03T05:39:26.467Z,10.40
2023-03-03T05:41:53.642Z,13.33
2023-03-03T05:44:20.769Z,10.97
2023-03-03T05:46:47.501Z,10.33
2023-03-03T05:49:14.212Z,12.27
2023-03-03T05:51:40.849Z,12.57
2023-03-03T05:54:08.847Z,12.30
2023-03-03T05:56:35.569Z,11.73
2023-03-03T05:59:02.224Z,11.60
2023-03-03T06:01:28.910Z,11.57
2023-03-03T06:03:55.654Z,10.10
2023-03-03T06:06:22.289Z,12.77
2023-03-03T06:08:48.949Z,11.77
2023-03-03T06:11:16.943Z,12.87
2023-03-03T06:13:43.603Z,12.27
2023-03-03T06:16:10.291Z,10.67
2023-03-03T06:18:37.040Z,10.23
2023-03-03T06:21:03.941Z,11.20
2023-03-03T06:23:30.673Z,11.27
2023-03-03T06:25:57.849Z,10.70
2023-03-03T06:28:25.859Z,11.80
2023-03-03T06:30:53.905Z,11.40
2023-03-03T06:33:20.769Z,11.17
2023-03-03T06:35:49.821Z,9.63
2023-03-03T06:38:16.551Z,10.53
2023-03-03T06:40:43.312Z,11.37
2023-03-03T06:43:10.059Z,9.77
2023-03-03T06:45:38.287Z,11.20
2023-03-03T06:48:05.576Z,10.40
2023-03-03T06:50:32.282Z,12.53
2023-03-03T06:53:07.390Z,12.10
2023-03-03T06:55:34.176Z,11.97
2023-03-03T06:58:01.668Z,13.60
2023-03-03T07:00:30.980Z,15.40
2023-03-03T07:03:01.575Z,13.37
2023-03-03T07:05:29.631Z,14.13
2023-03-03T07:07:56.491Z,13.97
2023-03-03T07:10:25.423Z,12.77
2023-03-03T07:12:52.405Z,13.70
2023-03-03T07:15:23.153Z,14.10
2023-03-03T07:17:54.758Z,14.30
2023-03-03T07:20:24.596Z,14.37
2023-03-03T07:22:52.189Z,14.80
2023-03-03T07:25:22.254Z,13.93
2023-03-03T07:27:48.961Z,13.30
2023-03-03T07:30:25.548Z,16.17
2023-03-03T07:32:53.397Z,15.23
2023-03-03T07:35:35.945Z,15.70
2023-03-03T07:38:03.380Z,12.23
2023-03-03T07:40:36.503Z,17.13
2023-03-03T07:43:33.666Z,16.57
2023-03-03T07:46:14.127Z,16.20
2023-03-03T07:48:42.417Z,17.07
2023-03-03T07:51:19.011Z,16.90
2023-03-03T07:53:45.701Z,18.47
2023-03-03T07:56:22.033Z,16.90
2023-03-03T07:58:48.753Z,16.93
2023-03-03T08:01:35.231Z,17.00
2023-03-03T08:04:01.985Z,16.93
2023-03-03T08:06:42.206Z,14.30
2023-03-03T08:09:39.353Z,16.37
2023-03-03T08:12:20.251Z,18.37
2023-03-03T08:14:47.435Z,16.40
2023-03-03T08:17:19.448Z,17.20
2023-03-03T08:19:46.123Z,19.10
2023-03-03T08:22:17.470Z,17.60
2023-03-03T08:24:44.216Z,19.27
2023-03-03T08:27:10.920Z,15.07
2023-03-03T08:29:37.588Z,19.53
2023-03-03T08:32:04.949Z,16.10
2023-03-03T08:34:31.691Z,15.40
2023-03-03T08:36:58.418Z,14.97
2023-03-03T08:39:26.470Z,16.63
2023-03-03T08:41:53.174Z,18.27
2023-03-03T08:44:19.862Z,13.07
2023-03-03T08:46:46.594Z,14.10
2023-03-03T08:49:13.341Z,17.37
2023-03-03T08:51:40.042Z,15.00
2023-03-03T08:54:06.828Z,16.20
2023-03-03T08:56:34.903Z,17.80
2023-03-03T08:59:03.033Z,16.67
2023-03-03T09:01:30.244Z,13.60
2023-03-03T09:03:56.940Z,18.40
2023-03-03T09:06:23.721Z,20.20
2023-03-03T09:08:50.514Z,16.50
2023-03-03T09:11:23.691Z,16.77
2023-03-03T09:14:10.250Z,16.03
2023-03-03T09:16:38.874Z,16.47
2023-03-03T09:19:19.509Z,19.33
2023-03-03T09:21:46.197Z,18.87
2023-03-03T09:24:21.816Z,16.50
2023-03-03T09:26:48.869Z,19.80
2023-03-03T09:29:25.208Z,20.60
2023-03-03T09:31:53.762Z,19.20
2023-03-03T09:34:23.038Z,18.13
2023-03-03T09:36:50.952Z,15.23
2023-03-03T09:39:19.708Z,13.87
2023-03-03T09:42:09.130Z,17.57
2023-03-03T09:45:02.881Z,14.73
2023-03-03T09:47:52.698Z,17.20
2023-03-03T09:50:29.805Z,17.30
2023-03-03T09:53:07.781Z,15.50
2023-03-03T09:55:42.122Z,15.70
2023-03-03T09:58:24.137Z,14.83
2023-03-03T10:00:59.308Z,17.00
2023-03-03T10:03:56.005Z,15.17
2023-03-03T10:06:26.988Z,15.93
2023-03-03T10:09:05.997Z,14.93
2023-03-03T10:11:38.182Z,16.93
2023-03-03T10:14:22.393Z,14.43
2023-03-03T10:17:06.113Z,16.17
2023-03-03T10:19:38.818Z,12.60
2023-03-03T10:22:19.710Z,15.47
2023-03-03T10:25:01.588Z,15.33
2023-03-03T10:27:53.631Z,13.80
2023-03-03T10:30:39.912Z,13.40
2023-03-03T10:33:19.888Z,15.00
2023-03-03T10:36:07.463Z,15.67
2023-03-03T10:38:52.094Z,12.60
2023-03-03T10:41:39.285Z,15.37
2023-03-03T10:44:32.168Z,15.50
2023-03-03T10:47:21.500Z,13.50
2023-03-03T10:50:00.514Z,11.30
2023-03-03T10:52:33.686Z,12.80
2023-03-03T10:55:25.647Z,15.37
2023-03-03T10:58:09.353Z,11.10
2023-03-03T11:00:41.291Z,14.17
2023-03-03T11:03:35.292Z,15.00
2023-03-03T11:06:06.484Z,13.80
2023-03-03T11:08:38.742Z,17.47
2023-03-03T11:11:16.381Z,12.93
2023-03-03T11:13:48.160Z,13.30
2023-03-03T11:16:31.780Z,14.40
2023-03-03T11:19:11.633Z,13.97
2023-03-03T11:21:46.882Z,12.97
2023-03-03T11:24:26.653Z,15.37
2023-03-03T11:27:08.758Z,12.70
2023-03-03T11:29:51.088Z,13.30
2023-03-03T11:32:24.447Z,15.10
2023-03-03T11:35:00.258Z,13.20
2023-03-03T11:37:35.563Z,13.67
2023-03-03T11:40:12.920Z,13.33
2023-03-03T11:42:51.729Z,15.40
2023-03-03T11:45:20.700Z,13.93
2023-03-03T11:47:55.410Z,13.80
2023-03-03T11:50:25.844Z,13.73
2023-03-03T11:53:02.019Z,13.53
2023-03-03T11:55:33.065Z,16.30
2023-03-03T11:58:11.950Z,16.40
2023-03-03T12:00:45.356Z,14.90
2023-03-03T12:03:20.089Z,14.67
2023-03-03T12:05:54.910Z,15.63
2023-03-03T12:08:35.377Z,15.40
2023-03-03T12:11:08.195Z,15.00
2023-03-03T12:13:47.582Z,15.47
2023-03-03T12:16:22.836Z,19.10
2023-03-03T12:19:00.713Z,15.97
2023-03-03T12:21:41.996Z,18.33
2023-03-03T12:24:35.334Z,15.57
2023-03-03T12:27:14.461Z,15.40
2023-03-03T12:29:45.675Z,12.70
2023-03-03T12:32:22.827Z,14.17
2023-03-03T12:34:56.447Z,15.00
2023-03-03T12:37:37.145Z,14.40
2023-03-03T12:40:09.392Z,15.30
2023-03-03T12:42:49.204Z,15.20
2023-03-03T12:45:32.094Z,15.80
2023-03-03T12:48:03.101Z,14.30
2023-03-03T12:50:38.653Z,12.50
2023-03-03T12:53:19.385Z,12.60
2023-03-03T12:55:53.911Z,12.70
2023-03-03T12:58:32.564Z,12.60
2023-03-03T13:01:12.713Z,13.63
2023-03-03T13:03:55.479Z,13.30
2023-03-03T13:06:28.402Z,13.90
2023-03-03T13:09:07.444Z,14.03
2023-03-03T13:11:54.118Z,13.50
2023-03-03T13:14:29.702Z,13.13
2023-03-03T13:17:06.027Z,13.00
2023-03-03T13:19:39.699Z,12.60
2023-03-03T13:22:12.370Z,13.10
2023-03-03T13:24:45.775Z,11.90
2023-03-03T13:27:16.984Z,12.47
2023-03-03T13:30:00.129Z,12.50
2023-03-03T13:32:35.038Z,11.00
2023-03-03T13:35:07.697Z,13.47
2023-03-03T13:37:38.884Z,9.40
2023-03-03T13:40:15.905Z,9.27
2023-03-03T13:42:48.662Z,11.00
2023-03-03T13:45:23.783Z,12.43
2023-03-03T13:48:01.500Z,11.77
2023-03-03T13:50:35.243Z,10.90
2023-03-03T13:53:24.587Z,12.10
2023-03-03T13:55:58.704Z,10.80
2023-03-03T13:58:37.388Z,12.60
2023-03-03T14:01:09.098Z,10.83
2023-03-03T14:04:02.229Z,9.30
2023-03-03T14:06:30.215Z,11.23
2023-03-03T14:09:35.139Z,10.13
2023-03-03T14:12:08.084Z,10.10
2023-03-03T14:14:47.291Z,12.03
2023-03-03T14:17:24.035Z,11.23
2023-03-03T14:20:00.833Z,12.37
2023-03-03T14:22:40.093Z,12.13
2023-03-03T14:25:09.050Z,12.50
2023-03-03T14:27:38.107Z,14.63
2023-03-03T14:30:27.515Z,12.20
2023-03-03T14:33:03.667Z,12.40
2023-03-03T14:35:33.220Z,12.63
2023-03-03T14:38:06.013Z,12.87
2023-03-03T14:40:34.016Z,13.80
2023-03-03T14:43:02.817Z,11.33
2023-03-03T14:45:34.259Z,12.80
2023-03-03T14:48:10.883Z,17.40
2023-03-03T14:50:39.622Z,12.80
2023-03-03T14:53:13.320Z,11.00
2023-03-03T14:55:42.289Z,14.07
2023-03-03T14:58:28.900Z,12.20
2023-03-03T15:01:15.553Z,13.93
2023-03-03T15:03:47.350Z,11.00
2023-03-03T15:06:32.981Z,13.23
2023-03-03T15:09:23.840Z,11.97
2023-03-03T15:11:51.785Z,12.23
2023-03-03T15:14:29.621Z,11.00
2023-03-03T15:17:16.131Z,11.67
2023-03-03T15:19:57.761Z,11.67
2023-03-03T15:22:45.267Z,12.47
2023-03-03T15:25:20.918Z,10.57
2023-03-03T15:27:51.858Z,12.53
2023-03-03T15:30:28.931Z,11.73
2023-03-03T15:33:04.936Z,13.10
2023-03-03T15:35:42.629Z,14.80
2023-03-03T15:38:21.759Z,12.80
2023-03-03T15:40:53.168Z,12.70
2023-03-03T15:43:27.031Z,11.33
2023-03-03T15:46:03.403Z,12.87
2023-03-03T15:48:42.848Z,12.00
2023-03-03T15:51:16.898Z,12.10
2023-03-03T15:54:09.705Z,13.27
2023-03-03T15:56:43.777Z,12.13
2023-03-03T15:59:30.246Z,12.70
2023-03-03T16:02:06.629Z,13.90
2023-03-03T16:04:37.157Z,13.07
2023-03-03T16:07:17.259Z,14.50
2023-03-03T16:09:56.028Z,11.13
2023-03-03T16:12:31.027Z,13.60
2023-03-03T16:15:16.157Z,14.00
2023-03-03T16:17:52.842Z,16.63
2023-03-03T16:20:26.979Z,14.23
2023-03-03T16:23:12.791Z,12.93
2023-03-03T16:25:57.806Z,12.60
2023-03-03T16:28:34.449Z,12.20
2023-03-03T16:31:06.494Z,13.63
2023-03-03T16:33:37.643Z,15.37
2023-03-03T16:36:13.359Z,13.87
2023-03-03T16:38:43.744Z,13.13
2023-03-03T16:41:14.268Z,15.63
2023-03-03T16:44:02.298Z,14.67
2023-03-03T16:46:33.901Z,16.50
2023-03-03T16:49:06.908Z,13.80
2023-03-03T16:51:42.517Z,14.20
2023-03-03T16:54:14.440Z,13.93
2023-03-03T16:56:46.369Z,12.57
2023-03-03T16:59:52.603Z,12.30
2023-03-03T17:02:38.739Z,13.73
2023-03-03T17:05:14.174Z,13.70
2023-03-03T17:07:50.210Z,12.43
2023-03-03T17:10:26.190Z,13.20
2023-03-03T17:13:18.775Z,14.30
2023-03-03T17:15:55.772Z,13.20
2023-03-03T17:18:35.755Z,13.70
2023-03-03T17:21:14.276Z,14.03
2023-03-03T17:24:19.723Z,14.77
2023-03-03T17:26:57.645Z,14.57
2023-03-03T17:29:39.278Z,15.10
2023-03-03T17:32:19.198Z,13.13
2023-03-03T17:35:03.334Z,15.57
2023-03-03T17:37:39.137Z,14.40
2023-03-03T17:40:23.478Z,13.67
2023-03-03T17:42:57.480Z,13.77
2023-03-03T17:45:25.690Z,16.60
2023-03-03T17:48:10.887Z,15.17
2023-03-03T17:50:54.880Z,15.97
2023-03-03T17:53:42.849Z,18.00
2023-03-03T17:56:18.619Z,15.37
2023-03-03T17:59:12.216Z,16.03
2023-03-03T18:02:04.162Z,18.13
2023-03-03T18:04:42.616Z,16.07
2023-03-03T18:07:33.414Z,19.57
2023-03-03T18:10:26.265Z,16.10
2023-03-03T18:13:02.472Z,21.10
2023-03-03T18:15:46.759Z,17.83
2023-03-03T18:18:32.740Z,18.90
2023-03-03T18:21:08.910Z,17.37
2023-03-03T18:23:40.338Z,18.83
2023-03-03T18:26:33.619Z,15.67
2023-03-03T18:29:23.940Z,18.07
2023-03-03T18:32:04.124Z,17.60
2023-03-03T18:34:36.721Z,18.67
2023-03-03T18:37:09.441Z,21.37
2023-03-03T18:39:39.346Z,19.07
2023-03-03T18:42:11.076Z,18.27
2023-03-03T18:44:39.193Z,17.93
2023-03-03T18:47:06.112Z,18.23
2023-03-03T18:49:52.663Z,16.70
2023-03-03T18:52:26.173Z,19.13
2023-03-03T18:55:03.036Z,16.13
2023-03-03T18:57:29.812Z,15.90
2023-03-03T19:00:14.001Z,16.00
2023-03-03T19:02:51.349Z,18.63
2023-03-03T19:05:21.669Z,16.00
2023-03-03T19:07:57.936Z,16.40
2023-03-03T19:10:54.308Z,14.70
2023-03-03T19:13:44.415Z,16.60
2023-03-03T19:16:36.289Z,12.30
2023-03-03T19:19:14.082Z,16.50
2023-03-03T19:21:42.360Z,17.03
2023-03-03T19:24:31.557Z,15.47
2023-03-03T19:27:13.762Z,16.63
2023-03-03T19:30:07.023Z,15.70
2023-03-03T19:33:13.079Z,15.03
2023-03-03T19:35:52.860Z,15.13
2023-03-03T19:38:31.733Z,16.60
2023-03-03T19:41:10.962Z,14.27
2023-03-03T19:43:49.409Z,16.00
2023-03-03T19:46:27.536Z,14.20
2023-03-03T19:49:02.581Z,14.07
2023-03-03T19:51:37.015Z,17.20
2023-03-03T19:54:17.333Z,17.10
2023-03-03T19:56:48.320Z,19.27
2023-03-03T19:59:24.645Z,21.50
2023-03-03T20:02:02.186Z,19.77
2023-03-03T20:04:42.852Z,23.30
2023-03-03T20:07:23.241Z,20.40
2023-03-03T20:09:56.674Z,20.23
2023-03-03T20:12:31.820Z,23.83
2023-03-03T20:15:06.782Z,25.83
2023-03-03T20:17:46.416Z,24.10
2023-03-03T20:20:29.142Z,24.80
2023-03-03T20:23:05.553Z,24.93
2023-03-03T20:25:37.277Z,25.27
2023-03-03T20:28:12.846Z,25.50
2023-03-03T20:30:59.326Z,27.57
2023-03-03T20:33:40.194Z,28.40
2023-03-03T20:36:13.730Z,29.43
2023-03-03T20:38:51.211Z,27.33
2023-03-03T20:41:29.692Z,26.93
2023-03-03T20:44:08.889Z,25.77
2023-03-03T20:46:45.646Z,20.87
2023-03-03T20:49:33.026Z,24.40
2023-03-03T20:52:06.760Z,22.90
2023-03-03T20:54:42.374Z,17.47
2023-03-03T20:57:14.737Z,19.50
2023-03-03T20:59:48.583Z,18.43
2023-03-03T21:02:20.043Z,19.00
2023-03-03T21:04:46.716Z,19.90
2023-03-03T21:07:24.976Z,18.70
2023-03-03T21:10:13.898Z,17.53
2023-03-03T21:12:40.653Z,17.63
2023-03-03T21:15:20.016Z,15.60
2023-03-03T21:17:46.733Z,15.80
2023-03-03T21:20:24.859Z,13.50
2023-03-03T21:22:51.954Z,15.60
2023-03-03T21:25:43.598Z,16.30
2023-03-03T21:28:18.243Z,16.27
2023-03-03T21:31:18.309Z,16.17
2023-03-03T21:33:51.216Z,13.53
2023-03-03T21:36:19.808Z,15.13
2023-03-03T21:38:47.439Z,12.17
2023-03-03T21:41:16.938Z,13.20
2023-03-03T21:43:45.136Z,13.23
2023-03-03T21:46:12.205Z,13.50
2023-03-03T21:48:42.264Z,15.53
2023-03-03T21:51:09.409Z,14.70
2023-03-03T21:53:36.373Z,13.17
2023-03-03T21:56:03.148Z,14.37
2023-03-03T21:58:31.101Z,14.60
2023-03-03T22:00:57.860Z,15.47
2023-03-03T22:03:24.634Z,16.50
2023-03-03T22:05:51.281Z,15.23
2023-03-03T22:08:17.928Z,15.37
2023-03-03T22:10:44.588Z,16.20
2023-03-03T22:13:11.250Z,16.50
2023-03-03T22:15:39.291Z,15.20
2023-03-03T22:18:06.138Z,13.63
2023-03-03T22:20:32.847Z,14.40
2023-03-03T22:22:59.510Z,13.40
2023-03-03T22:25:26.166Z,13.90
2023-03-03T22:27:52.841Z,16.20
2023-03-03T22:30:19.592Z,16.90
2023-03-03T22:32:47.617Z,15.50
2023-03-03T22:35:14.453Z,16.37
2023-03-03T22:37:41.081Z,14.40
2023-03-03T22:40:08.839Z,12.80
2023-03-03T22:42:35.481Z,13.60
2023-03-03T22:45:02.196Z,18.07
2023-03-03T22:47:28.899Z,14.93
2023-03-03T22:49:56.889Z,15.87
2023-03-03T22:52:23.544Z,16.10
2023-03-03T22:54:50.628Z,17.57
2023-03-03T22:57:17.299Z,17.80
2023-03-03T22:59:43.944Z,15.40
2023-03-03T23:02:10.573Z,15.10
2023-03-03T23:04:37.275Z,15.57
2023-03-03T23:07:05.373Z,13.17
2023-03-03T23:09:32.068Z,15.47
2023-03-03T23:11:58.725Z,16.07
2023-03-03T23:14:25.400Z,14.30
2023-03-03T23:16:52.032Z,13.37
2023-03-03T23:19:19.050Z,13.03
2023-03-03T23:21:45.859Z,14.10
2023-03-03T23:24:13.898Z,12.40
2023-03-03T23:26:40.554Z,15.00
2023-03-03T23:29:07.290Z,11.43
2023-03-03T23:31:34.127Z,13.90
2023-03-03T23:34:00.856Z,11.87
2023-03-03T23:36:27.488Z,11.20
2023-03-03T23:38:54.161Z,11.00
2023-03-03T23:41:22.136Z,13.90
2023-03-03T23:43:48.768Z,12.67
2023-03-03T23:46:15.437Z,12.90
2023-03-03T23:48:42.125Z,13.20
2023-03-03T23:51:08.802Z,10.30
2023-03-03T23:53:35.465Z,12.37
2023-03-03T23:56:02.215Z,11.30
2023-03-03T23:58:30.221Z,13.47
